createdAt,value
2023-05-05T00:01:02.487Z,4.43
2023-05-05T00:03:29.723Z,5.30
2023-05-05T00:05:56.935Z,4.75
2023-05-05T00:08:23.875Z,4.82
2023-05-05T00:10:52.973Z,4.63
2023-05-05T00:13:20.982Z,5.20
2023-05-05T00:15:50.055Z,5.53
2023-05-05T00:18:17.972Z,6.30
2023-05-05T00:20:47.077Z,6.80
2023-05-05T00:23:15.044Z,8.60
2023-05-05T00:25:42.337Z,8.02
2023-05-05T00:28:09.273Z,9.32
2023-05-05T00:30:36.547Z,8.93
2023-05-05T00:33:03.508Z,10.23
2023-05-05T00:35:30.351Z,9.13
2023-05-05T00:37:57.505Z,9.82
2023-05-05T00:40:25.397Z,9.90
2023-05-05T00:42:52.594Z,10.32
2023-05-05T00:45:20.145Z,9.88
2023-05-05T00:47:52.869Z,11.20
2023-05-05T00:50:30.780Z,9.45
2023-05-05T00:53:02.281Z,9.60
2023-05-05T00:55:33.784Z,7.97
2023-05-05T00:58:03.185Z,7.72
2023-05-05T01:00:30.226Z,8.05
2023-05-05T01:02:58.140Z,6.85
2023-05-05T01:05:27.162Z,6.07
2023-05-05T01:08:10.614Z,7.03
2023-05-05T01:10:55.451Z,6.40
2023-05-05T01:13:30.170Z,5.72
2023-05-05T01:16:20.315Z,5.03
2023-05-05T01:19:21.760Z,4.57
2023-05-05T01:21:52.758Z,4.35
2023-05-05T01:24:44.563Z,4.45
2023-05-05T01:27:27.377Z,3.70
2023-05-05T01:30:03.728Z,3.50
2023-05-05T01:32:34.298Z,3.58
2023-05-05T01:35:14.616Z,4.60
2023-05-05T01:37:51.076Z,3.05
2023-05-05T01:40:23.068Z,4.30
2023-05-05T01:42:51.516Z,3.30
2023-05-05T01:45:20.366Z,3.55
2023-05-05T01:47:47.906Z,3.40
2023-05-05T01:50:15.306Z,3.00
2023-05-05T01:52:43.247Z,3.08
2023-05-05T01:55:11.323Z,4.35
2023-05-05T01:57:39.708Z,3.50
2023-05-05T02:00:07.854Z,2.70
2023-05-05T02:02:44.664Z,2.97
2023-05-05T02:05:13.034Z,3.22
2023-05-05T02:07:40.037Z,3.10
2023-05-05T02:10:08.376Z,4.22
2023-05-05T02:12:37.467Z,4.38
2023-05-05T02:15:05.343Z,3.65
2023-05-05T02:17:32.346Z,3.25
2023-05-05T02:20:01.370Z,4.07
2023-05-05T02:22:28.379Z,3.28
2023-05-05T02:24:55.559Z,3.63
2023-05-05T02:27:23.452Z,3.38
2023-05-05T02:29:58.295Z,2.58
2023-05-05T02:32:32.264Z,3.08
2023-05-05T02:35:06.118Z,2.53
2023-05-05T02:37:34.110Z,2.42
2023-05-05T02:40:04.643Z,2.75
2023-05-05T02:42:39.511Z,2.97
2023-05-05T02:45:12.391Z,3.10
2023-05-05T02:47:42.476Z,3.00
2023-05-05T02:50:10.324Z,2.72
2023-05-05T02:52:42.460Z,3.10
2023-05-05T02:55:10.658Z,2.92
2023-05-05T02:57:57.909Z,3.15
2023-05-05T03:00:30.560Z,2.50
2023-05-05T03:03:14.300Z,3.75
2023-05-05T03:05:47.674Z,2.70
2023-05-05T03:08:21.039Z,4.03
2023-05-05T03:11:00.034Z,2.83
2023-05-05T03:13:28.596Z,3.13
2023-05-05T03:15:58.185Z,2.55
2023-05-05T03:18:26.848Z,2.80
2023-05-05T03:21:00.037Z,2.75
2023-05-05T03:23:27.218Z,2.67
2023-05-05T03:25:58.060Z,3.33
2023-05-05T03:28:32.433Z,3.15
2023-05-05T03:31:04.143Z,3.65
2023-05-05T03:33:33.543Z,3.67
2023-05-05T03:36:01.036Z,4.22
2023-05-05T03:38:28.079Z,4.68
2023-05-05T03:40:55.989Z,4.40
2023-05-05T03:43:25.729Z,5.20
2023-05-05T03:45:52.687Z,5.72
2023-05-05T03:48:19.824Z,6.18
2023-05-05T03:50:47.155Z,5.65
2023-05-05T03:53:15.575Z,6.00
2023-05-05T03:55:43.317Z,5.70
2023-05-05T03:58:11.271Z,5.38
2023-05-05T04:00:38.228Z,6.28
2023-05-05T04:03:05.456Z,6.65
2023-05-05T04:05:32.682Z,7.78
2023-05-05T04:07:59.941Z,6.68
2023-05-05T04:10:27.016Z,7.53
2023-05-05T04:12:54.448Z,7.78
2023-05-05T04:15:21.355Z,9.20
2023-05-05T04:17:48.367Z,8.45
2023-05-05T04:20:15.514Z,8.13
2023-05-05T04:22:42.352Z,8.32
2023-05-05T04:25:10.395Z,10.38
2023-05-05T04:27:38.118Z,8.35
2023-05-05T04:30:07.067Z,9.25
2023-05-05T04:32:37.002Z,11.05
2023-05-05T04:35:05.320Z,10.18
2023-05-05T04:37:32.314Z,10.40
2023-05-05T04:39:59.840Z,11.85
2023-05-05T04:42:27.781Z,12.15
2023-05-05T04:44:55.191Z,10.65
2023-05-05T04:47:22.871Z,11.63
2023-05-05T04:49:51.193Z,10.60
2023-05-05T04:52:18.625Z,12.55
2023-05-05T04:54:45.422Z,14.00
2023-05-05T04:57:12.431Z,12.10
2023-05-05T04:59:39.300Z,11.40
2023-05-05T05:02:06.647Z,15.57
2023-05-05T05:04:33.839Z,13.38
2023-05-05T05:07:01.801Z,13.48
2023-05-05T05:09:28.864Z,14.38
2023-05-05T05:12:01.058Z,15.85
2023-05-05T05:14:28.238Z,14.77
2023-05-05T05:16:55.436Z,15.02
2023-05-05T05:19:24.198Z,15.77
2023-05-05T05:21:51.818Z,13.75
2023-05-05T05:24:19.021Z,13.68
2023-05-05T05:26:46.610Z,14.35
2023-05-05T05:29:13.620Z,14.43
2023-05-05T05:31:40.566Z,13.82
2023-05-05T05:34:08.465Z,13.43
2023-05-05T05:36:36.516Z,14.50
2023-05-05T05:39:03.651Z,14.48
2023-05-05T05:41:30.848Z,14.88
2023-05-05T05:43:58.036Z,13.95
2023-05-05T05:46:25.681Z,15.38
2023-05-05T05:48:53.301Z,13.93
2023-05-05T05:51:20.928Z,14.10
2023-05-05T05:53:48.815Z,12.30
2023-05-05T05:56:15.834Z,13.52
2023-05-05T05:58:43.668Z,14.20
2023-05-05T06:01:11.323Z,13.40
2023-05-05T06:03:38.373Z,12.30
2023-05-05T06:06:07.566Z,12.52
2023-05-05T06:08:34.542Z,12.73
2023-05-05T06:11:01.605Z,10.68
2023-05-05T06:13:29.299Z,11.20
2023-05-05T06:15:56.529Z,11.07
2023-05-05T06:18:23.581Z,10.40
2023-05-05T06:20:52.543Z,11.30
2023-05-05T06:23:22.233Z,11.82
2023-05-05T06:25:55.791Z,8.93
2023-05-05T06:28:22.789Z,9.18
2023-05-05T06:30:49.654Z,9.57
2023-05-05T06:33:16.726Z,8.75
2023-05-05T06:35:43.567Z,9.35
2023-05-05T06:38:10.769Z,9.18
2023-05-05T06:40:37.620Z,9.63
2023-05-05T06:43:04.764Z,9.10
2023-05-05T06:45:36.502Z,8.88
2023-05-05T06:48:03.438Z,7.22
2023-05-05T06:50:30.451Z,6.53
2023-05-05T06:52:57.314Z,5.43
2023-05-05T06:55:25.048Z,5.18
2023-05-05T06:57:52.001Z,4.53
2023-05-05T07:00:19.662Z,4.88
2023-05-05T07:02:47.711Z,5.40
2023-05-05T07:05:14.781Z,4.50
2023-05-05T07:07:54.163Z,4.45
2023-05-05T07:10:22.677Z,3.70
2023-05-05T07:12:50.063Z,3.30
2023-05-05T07:15:27.499Z,3.83
2023-05-05T07:17:56.675Z,2.25
2023-05-05T07:20:24.288Z,3.30
2023-05-05T07:22:51.481Z,3.00
2023-05-05T07:25:18.500Z,2.13
2023-05-05T07:27:45.493Z,1.90
2023-05-05T07:30:15.589Z,1.92
2023-05-05T07:32:46.073Z,1.95
2023-05-05T07:35:13.211Z,2.30
2023-05-05T07:37:40.321Z,1.70
2023-05-05T07:40:08.342Z,2.08
2023-05-05T07:42:35.521Z,1.50
2023-05-05T07:45:02.476Z,1.90
2023-05-05T07:47:29.380Z,1.90
2023-05-05T07:49:57.337Z,2.25
2023-05-05T07:52:37.069Z,2.03
2023-05-05T07:55:11.254Z,2.05
2023-05-05T07:57:38.822Z,2.40
2023-05-05T08:00:06.633Z,2.33
2023-05-05T08:02:39.562Z,1.42
2023-05-05T08:05:07.959Z,2.08
2023-05-05T08:07:36.887Z,1.60
2023-05-05T08:10:04.238Z,1.40
2023-05-05T08:12:31.367Z,1.48
2023-05-05T08:14:58.287Z,1.13
2023-05-05T08:17:27.200Z,1.27
2023-05-05T08:19:54.345Z,1.55
2023-05-05T08:22:24.159Z,1.30
2023-05-05T08:24:51.064Z,1.05
2023-05-05T08:27:17.894Z,1.10
2023-05-05T08:29:44.890Z,2.15
2023-05-05T08:32:11.728Z,1.42
2023-05-05T08:34:38.549Z,1.23
2023-05-05T08:37:05.639Z,1.10
2023-05-05T08:39:32.461Z,1.35
2023-05-05T08:41:59.525Z,1.42
2023-05-05T08:44:27.371Z,0.90
2023-05-05T08:46:55.210Z,1.45
2023-05-05T08:49:22.251Z,1.25
2023-05-05T08:51:50.025Z,0.68
2023-05-05T08:54:20.414Z,1.00
2023-05-05T08:56:51.104Z,1.40
2023-05-05T08:59:19.235Z,1.40
2023-05-05T09:01:46.239Z,1.23
2023-05-05T09:04:13.340Z,1.77
2023-05-05T09:06:40.683Z,1.23
2023-05-05T09:09:08.562Z,1.33
2023-05-05T09:11:35.952Z,1.02
2023-05-05T09:14:03.260Z,1.23
2023-05-05T09:16:30.411Z,1.02
2023-05-05T09:19:04.596Z,1.05
2023-05-05T09:21:32.439Z,0.63
2023-05-05T09:24:08.858Z,1.17
2023-05-05T09:26:38.102Z,0.80
2023-05-05T09:29:06.451Z,0.60
2023-05-05T09:31:34.721Z,1.08
2023-05-05T09:34:01.726Z,0.43
2023-05-05T09:36:48.095Z,0.90
2023-05-05T09:39:19.478Z,0.70
2023-05-05T09:41:47.102Z,1.02
2023-05-05T09:44:16.976Z,1.00
2023-05-05T09:46:51.691Z,0.80
2023-05-05T09:49:23.564Z,1.33
2023-05-05T09:51:51.865Z,0.95
2023-05-05T09:54:26.884Z,0.70
2023-05-05T09:56:54.033Z,0.93
2023-05-05T09:59:21.557Z,0.52
2023-05-05T10:01:49.888Z,0.77
2023-05-05T10:04:24.677Z,1.52
2023-05-05T10:06:51.715Z,0.82
2023-05-05T10:09:18.559Z,0.98
2023-05-05T10:11:47.279Z,0.70
2023-05-05T10:14:18.916Z,0.63
2023-05-05T10:16:49.098Z,0.82
2023-05-05T10:19:17.377Z,0.50
2023-05-05T10:21:54.288Z,1.00
2023-05-05T10:24:24.205Z,0.60
2023-05-05T10:26:52.199Z,0.50
2023-05-05T10:29:28.414Z,0.90
2023-05-05T10:31:57.211Z,1.00
2023-05-05T10:34:29.755Z,0.80
2023-05-05T10:36:59.893Z,0.98
2023-05-05T10:39:26.835Z,1.17
2023-05-05T10:41:54.082Z,1.20
2023-05-05T10:44:21.441Z,1.05
2023-05-05T10:46:48.478Z,1.25
2023-05-05T10:49:42.767Z,0.73
2023-05-05T10:52:26.348Z,0.95
2023-05-05T10:55:05.297Z,0.98
2023-05-05T10:57:32.748Z,0.90
2023-05-05T10:59:59.937Z,0.95
2023-05-05T11:02:28.315Z,1.00
2023-05-05T11:05:04.490Z,1.00
2023-05-05T11:07:32.256Z,0.90
2023-05-05T11:10:03.847Z,1.15
2023-05-05T11:12:32.466Z,1.20
2023-05-05T11:15:24.472Z,0.80
2023-05-05T11:17:51.532Z,1.00
2023-05-05T11:20:24.911Z,1.15
2023-05-05T11:23:04.384Z,1.38
2023-05-05T11:25:36.351Z,1.38
2023-05-05T11:28:25.649Z,2.53
2023-05-05T11:30:58.984Z,1.08
2023-05-05T11:33:31.710Z,1.15
2023-05-05T11:38:56.862Z,1.38
2023-05-05T11:41:33.517Z,1.30
2023-05-05T11:44:14.042Z,0.90
2023-05-05T11:46:44.280Z,1.30
2023-05-05T11:49:11.213Z,1.35
2023-05-05T11:51:38.213Z,1.08
2023-05-05T11:54:05.453Z,1.75
2023-05-05T11:56:32.328Z,1.92
2023-05-05T11:59:10.263Z,1.70
2023-05-05T12:01:41.581Z,1.50
2023-05-05T12:04:12.368Z,1.50
2023-05-05T12:06:40.072Z,1.55
2023-05-05T12:09:11.942Z,1.98
2023-05-05T12:11:54.569Z,2.00
2023-05-05T12:14:22.361Z,2.60
2023-05-05T12:17:03.170Z,2.40
2023-05-05T12:19:33.436Z,2.78
2023-05-05T12:22:04.702Z,2.65
2023-05-05T12:24:31.922Z,2.75
2023-05-05T12:27:09.330Z,3.80
2023-05-05T12:29:36.195Z,4.13
2023-05-05T12:32:03.941Z,3.90
2023-05-05T12:34:31.942Z,3.90
2023-05-05T12:36:59.044Z,3.85
2023-05-05T12:39:38.346Z,3.53
2023-05-05T12:42:06.474Z,3.95
2023-05-05T12:44:37.481Z,4.40
2023-05-05T12:47:05.076Z,5.13
2023-05-05T12:49:34.584Z,7.05
2023-05-05T12:52:01.714Z,6.30
2023-05-05T12:54:31.426Z,5.88
2023-05-05T12:56:58.897Z,5.25
2023-05-05T12:59:25.695Z,5.38
2023-05-05T13:01:56.488Z,5.88
2023-05-05T13:04:25.260Z,6.65
2023-05-05T13:07:11.826Z,7.03
2023-05-05T13:09:39.139Z,6.70
2023-05-05T13:12:08.361Z,5.82
2023-05-05T13:14:36.695Z,5.65
2023-05-05T13:17:03.781Z,8.10
2023-05-05T13:20:28.511Z,8.40
2023-05-05T13:23:54.802Z,8.02
2023-05-05T13:26:28.873Z,6.63
2023-05-05T13:28:56.254Z,10.93
2023-05-05T13:31:23.367Z,8.35
2023-05-05T13:33:51.561Z,9.43
2023-05-05T13:36:18.591Z,8.00
2023-05-05T13:38:46.327Z,8.43
2023-05-05T13:41:13.141Z,9.35
2023-05-05T13:43:40.422Z,11.27
2023-05-05T13:46:19.603Z,10.70
2023-05-05T13:48:47.694Z,10.88
2023-05-05T13:51:16.502Z,10.80
2023-05-05T13:53:46.908Z,10.23
2023-05-05T13:56:14.470Z,9.63
2023-05-05T13:58:42.553Z,8.30
2023-05-05T14:01:10.651Z,6.85
2023-05-05T14:03:39.635Z,6.75
2023-05-05T14:06:07.572Z,6.75
2023-05-05T14:08:34.812Z,6.93
2023-05-05T14:11:03.279Z,6.30
2023-05-05T14:13:30.693Z,7.20
2023-05-05T14:15:58.514Z,6.30
2023-05-05T14:18:26.268Z,5.60
2023-05-05T14:20:53.292Z,5.10
2023-05-05T14:23:20.489Z,5.55
2023-05-05T14:25:47.768Z,5.95
2023-05-05T14:28:14.993Z,5.25
2023-05-05T14:30:42.088Z,6.30
2023-05-05T14:33:09.695Z,4.55
2023-05-05T14:35:36.662Z,4.80
2023-05-05T14:38:03.816Z,3.55
2023-05-05T14:40:31.360Z,3.38
2023-05-05T14:42:58.678Z,3.42
2023-05-05T14:45:26.470Z,3.85
2023-05-05T14:47:53.733Z,2.63
2023-05-05T14:50:20.845Z,3.30
2023-05-05T14:52:47.931Z,3.25
2023-05-05T14:55:16.342Z,3.22
2023-05-05T14:57:43.272Z,2.83
2023-05-05T15:00:11.064Z,3.58
2023-05-05T15:02:38.861Z,3.72
2023-05-05T15:05:06.544Z,3.45
2023-05-05T15:07:33.522Z,3.55
2023-05-05T15:10:00.371Z,4.32
2023-05-05T15:12:27.296Z,3.97
2023-05-05T15:14:55.652Z,3.97
2023-05-05T15:17:22.748Z,5.00
2023-05-05T15:19:49.670Z,4.22
2023-05-05T15:22:16.617Z,4.22
2023-05-05T15:24:43.488Z,4.55
2023-05-05T15:27:10.379Z,6.30
2023-05-05T15:29:37.402Z,5.07
2023-05-05T15:32:04.454Z,5.13
2023-05-05T15:34:31.807Z,5.13
2023-05-05T15:36:58.846Z,4.57
2023-05-05T15:39:44.128Z,4.63
2023-05-05T15:42:11.151Z,4.60
2023-05-05T15:44:38.094Z,4.38
2023-05-05T15:47:05.593Z,3.63
2023-05-05T15:49:32.479Z,4.20
2023-05-05T15:51:59.478Z,4.35
2023-05-05T15:54:26.320Z,4.97
2023-05-05T15:56:53.280Z,4.32
2023-05-05T15:59:20.182Z,5.13
2023-05-05T16:01:47.524Z,4.65
2023-05-05T16:04:14.802Z,5.43
2023-05-05T16:06:41.749Z,4.43
2023-05-05T16:09:09.181Z,5.53
2023-05-05T16:11:37.371Z,6.53
2023-05-05T16:14:04.453Z,7.85
2023-05-05T16:16:31.435Z,8.00
2023-05-05T16:18:58.436Z,8.60
2023-05-05T16:21:25.860Z,9.32
2023-05-05T16:23:52.790Z,8.68
2023-05-05T16:26:19.786Z,9.15
2023-05-05T16:28:46.908Z,11.32
2023-05-05T16:31:13.864Z,9.30
2023-05-05T16:33:43.809Z,10.20
2023-05-05T16:36:12.650Z,10.82
2023-05-05T16:38:40.242Z,10.00
2023-05-05T16:41:07.296Z,10.60
2023-05-05T16:43:34.366Z,10.63
2023-05-05T16:46:01.418Z,10.07
2023-05-05T16:48:28.319Z,10.88
2023-05-05T16:50:58.587Z,9.40
2023-05-05T16:53:25.662Z,9.57
2023-05-05T16:55:53.511Z,9.57
2023-05-05T16:58:21.417Z,8.73
2023-05-05T17:00:49.528Z,10.25
2023-05-05T17:03:17.401Z,9.82
2023-05-05T17:05:46.161Z,9.85
2023-05-05T17:08:14.828Z,9.68
2023-05-05T17:10:45.623Z,10.23
2023-05-05T17:13:14.016Z,10.05
2023-05-05T17:15:41.634Z,8.73
2023-05-05T17:18:08.742Z,9.32
2023-05-05T17:20:36.521Z,9.80
2023-05-05T17:23:03.647Z,8.95
2023-05-05T17:25:31.079Z,9.23
2023-05-05T17:27:57.946Z,9.13
2023-05-05T17:30:24.886Z,9.93
2023-05-05T17:32:51.790Z,9.10
2023-05-05T17:35:18.917Z,9.38
2023-05-05T17:37:46.381Z,9.75
2023-05-05T17:40:13.529Z,8.27
2023-05-05T17:42:40.667Z,8.85
2023-05-05T17:45:08.617Z,9.65
2023-05-05T17:47:36.311Z,9.32
2023-05-05T17:50:03.575Z,9.98
2023-05-05T17:52:30.427Z,10.55
2023-05-05T17:54:57.234Z,10.35
2023-05-05T17:57:24.198Z,9.95
2023-05-05T17:59:52.087Z,10.70
2023-05-05T18:02:19.484Z,10.48
2023-05-05T18:04:46.611Z,10.98
2023-05-05T18:07:14.821Z,10.55
2023-05-05T18:09:42.427Z,10.48
2023-05-05T18:12:09.892Z,10.23
2023-05-05T18:14:37.136Z,9.07
2023-05-05T18:17:04.929Z,9.48
2023-05-05T18:19:32.145Z,11.02
2023-05-05T18:21:59.220Z,10.75
2023-05-05T18:24:26.685Z,11.30
2023-05-05T18:26:53.540Z,12.02
2023-05-05T18:29:22.210Z,11.13
2023-05-05T18:31:53.043Z,11.07
2023-05-05T18:34:21.019Z,11.38
2023-05-05T18:36:50.145Z,9.52
2023-05-05T18:39:17.947Z,11.02
2023-05-05T18:41:44.905Z,10.77
2023-05-05T18:44:11.914Z,10.52
2023-05-05T18:46:38.834Z,10.07
2023-05-05T18:49:05.794Z,11.38
2023-05-05T18:51:32.832Z,11.23
2023-05-05T18:54:01.045Z,10.50
2023-05-05T18:56:28.429Z,11.43
2023-05-05T18:58:55.772Z,10.98
2023-05-05T19:01:23.396Z,11.00
2023-05-05T19:03:50.366Z,10.52
2023-05-05T19:06:17.846Z,11.27
2023-05-05T19:08:46.079Z,11.50
2023-05-05T19:11:14.874Z,10.77
2023-05-05T19:13:42.858Z,11.75
2023-05-05T19:16:11.509Z,11.55
2023-05-05T19:18:39.231Z,11.30
2023-05-05T19:21:06.179Z,12.25
2023-05-05T19:23:33.644Z,12.15
2023-05-05T19:26:00.803Z,11.90
2023-05-05T19:28:27.592Z,11.40
2023-05-05T19:30:54.548Z,11.88
2023-05-05T19:33:21.535Z,10.98
2023-05-05T19:35:48.716Z,11.75
2023-05-05T19:38:15.908Z,11.27
2023-05-05T19:40:43.326Z,11.73
2023-05-05T19:43:10.424Z,10.98
2023-05-05T19:45:37.345Z,12.23
2023-05-05T19:48:04.619Z,11.35
2023-05-05T19:50:31.824Z,10.85
2023-05-05T19:52:58.858Z,12.95
2023-05-05T19:55:26.007Z,12.30
2023-05-05T19:57:53.010Z,60.70
2023-05-05T20:00:20.032Z,12.98
2023-05-05T20:02:49.202Z,12.52
2023-05-05T20:05:17.626Z,12.48
2023-05-05T20:07:46.770Z,12.95
2023-05-05T20:10:13.961Z,11.10
2023-05-05T20:12:48.473Z,13.07
2023-05-05T20:15:18.919Z,11.75
2023-05-05T20:17:47.016Z,12.93
2023-05-05T20:20:19.095Z,12.50
2023-05-05T20:22:46.725Z,12.25
2023-05-05T20:25:16.216Z,12.13
2023-05-05T20:27:43.961Z,11.70
2023-05-05T20:30:12.298Z,11.05
2023-05-05T20:32:39.591Z,10.75
2023-05-05T20:35:07.468Z,12.15
2023-05-05T20:37:34.373Z,10.95
2023-05-05T20:40:01.287Z,11.63
2023-05-05T20:42:29.896Z,10.27
2023-05-05T20:44:57.076Z,11.32
2023-05-05T20:47:24.509Z,11.55
2023-05-05T20:49:52.689Z,29.55
2023-05-05T20:52:19.709Z,11.63
2023-05-05T20:54:46.750Z,10.82
2023-05-05T20:57:13.602Z,9.68
2023-05-05T20:59:40.548Z,12.63
2023-05-05T21:02:07.564Z,13.35
2023-05-05T21:04:34.697Z,10.88
2023-05-05T21:07:01.780Z,14.90
2023-05-05T21:09:29.029Z,11.95
2023-05-05T21:11:55.876Z,11.82
2023-05-05T21:14:23.492Z,10.00
2023-05-05T21:16:50.491Z,10.02
2023-05-05T21:19:17.446Z,9.73
2023-05-05T21:21:44.496Z,11.88
2023-05-05T21:24:13.126Z,10.73
2023-05-05T21:26:44.502Z,10.35
2023-05-05T21:29:11.927Z,9.57
2023-05-05T21:31:38.961Z,11.18
2023-05-05T21:34:05.966Z,9.40
2023-05-05T21:36:34.005Z,11.13
2023-05-05T21:39:01.042Z,11.93
2023-05-05T21:41:28.331Z,10.02
2023-05-05T21:43:55.988Z,10.50
2023-05-05T21:46:23.107Z,10.05
2023-05-05T21:48:50.486Z,10.45
2023-05-05T21:51:17.668Z,11.57
2023-05-05T21:53:44.708Z,10.52
2023-05-05T21:56:11.603Z,10.70
2023-05-05T21:58:38.748Z,9.95
2023-05-05T22:01:05.831Z,10.93
2023-05-05T22:03:35.145Z,10.45
2023-05-05T22:06:02.107Z,11.07
2023-05-05T22:08:29.180Z,9.93
2023-05-05T22:10:56.050Z,9.70
2023-05-05T22:13:23.006Z,11.15
2023-05-05T22:15:50.456Z,10.38
2023-05-05T22:18:17.414Z,11.27
2023-05-05T22:20:44.351Z,10.43
2023-05-05T22:23:11.371Z,11.57
2023-05-05T22:25:38.367Z,11.25
2023-05-05T22:28:05.277Z,8.73
2023-05-05T22:30:32.314Z,11.05
2023-05-05T22:32:59.124Z,10.52
2023-05-05T22:35:26.067Z,10.77
2023-05-05T22:37:53.159Z,9.75
2023-05-05T22:40:20.183Z,10.85
2023-05-05T22:42:47.088Z,9.20
2023-05-05T22:45:14.170Z,11.00
2023-05-05T22:47:41.094Z,9.30
2023-05-05T22:50:08.981Z,9.23
2023-05-05T22:52:36.512Z,10.77
2023-05-05T22:55:03.753Z,11.25
2023-05-05T22:57:30.771Z,10.43
2023-05-05T22:59:57.692Z,12.40
2023-05-05T23:02:26.802Z,10.98
2023-05-05T23:04:54.029Z,11.10
2023-05-05T23:07:21.140Z,10.95
2023-05-05T23:09:48.216Z,11.63
2023-05-05T23:12:15.219Z,11.48
2023-05-05T23:14:42.102Z,10.98
2023-05-05T23:17:09.197Z,11.93
2023-05-05T23:19:36.487Z,12.18
2023-05-05T23:22:04.320Z,11.80
2023-05-05T23:24:31.189Z,11.75
2023-05-05T23:26:59.873Z,11.70
2023-05-05T23:29:26.663Z,12.13
2023-05-05T23:31:53.703Z,12.43
2023-05-05T23:34:20.495Z,11.73
2023-05-05T23:36:47.408Z,12.35
2023-05-05T23:39:14.266Z,12.00
2023-05-05T23:41:41.341Z,11.80
2023-05-05T23:44:08.119Z,12.23
2023-05-05T23:46:35.022Z,12.65
2023-05-05T23:49:01.963Z,12.95
2023-05-05T23:51:28.849Z,13.23
2023-05-05T23:53:57.432Z,13.77
2023-05-05T23:56:24.547Z,12.55
2023-05-05T23:58:52.602Z,13.88
